sensor_id;sensor_type;location;lat;lon;timestamp;temperature;humidity
18690;DHT22;9782;52.930;15.562;2023-06-14T04:58:24;13.70;99.90
18690;DHT22;9782;52.930;15.562;2023-06-14T05:00:51;13.90;99.90
18690;DHT22;9782;52.930;15.562;2023-06-14T05:03:18;14.00;99.90
18690;DHT22;9782;52.930;15.562;2023-06-14T05:05:46;14.10;99.90
18690;DHT22;9782;52.930;15.562;2023-06-14T05:08:13;14.20;99.90
18690;DHT22;9782;52.930;15.562;2023-06-14T05:10:40;14.30;99.90
18690;DHT22;9782;52.930;15.562;2023-06-14T05:13:07;14.40;99.90
18690;DHT22;9782;52.930;15.562;2023-06-14T05:15:35;14.60;90.60
18690;DHT22;9782;52.930;15.562;2023-06-14T05:18:01;14.70;26.80
18690;DHT22;9782;52.930;15.562;2023-06-14T05:20:28;14.90;1.00
18690;DHT22;9782;52.930;15.562;2023-06-14T05:22:55;15.10;1.00
18690;DHT22;9782;52.930;15.562;2023-06-14T05:25:23;15.20;1.00
18690;DHT22;9782;52.930;15.562;2023-06-14T05:27:50;15.40;1.00
18690;DHT22;9782;52.930;15.562;2023-06-14T05:30:17;15.40;1.00
18690;DHT22;9782;52.930;15.562;2023-06-14T05:32:45;15.50;1.00
18690;DHT22;9782;52.930;15.562;2023-06-14T05:35:12;15.60;99.90
18690;DHT22;9782;52.930;15.562;2023-06-14T05:37:39;15.60;99.90
18690;DHT22;9782;52.930;15.562;2023-06-14T05:40:07;15.60;99.90
18690;DHT22;9782;52.930;15.562;2023-06-14T05:42:34;15.70;99.90
18690;DHT22;9782;52.930;15.562;2023-06-14T05:45:01;15.70;99.90
18690;DHT22;9782;52.930;15.562;2023-06-14T05:47:27;15.70;84.50
18690;DHT22;9782;52.930;15.562;2023-06-14T05:49:56;15.70;1.00
18690;DHT22;9782;52.930;15.562;2023-06-14T05:52:22;15.70;1.00
18690;DHT22;9782;52.930;15.562;2023-06-14T05:54:49;15.70;1.00
18690;DHT22;9782;52.930;15.562;2023-06-14T05:57:16;15.60;68.90
18690;DHT22;9782;52.930;15.562;2023-06-14T05:59:42;15.60;99.90
18690;DHT22;9782;52.930;15.562;2023-06-14T06:02:09;15.50;99.90
18690;DHT22;9782;52.930;15.562;2023-06-14T06:04:36;15.40;99.90
18690;DHT22;9782;52.930;15.562;2023-06-14T06:07:04;15.40;99.90
18690;DHT22;9782;52.930;15.562;2023-06-14T06:09:32;15.50;99.90
18690;DHT22;9782;52.930;15.562;2023-06-14T06:11:59;15.50;99.90
18690;DHT22;9782;52.930;15.562;2023-06-14T06:14:26;15.60;99.90
18690;DHT22;9782;52.930;15.562;2023-06-14T06:16:53;15.60;99.90
18690;DHT22;9782;52.930;15.562;2023-06-14T06:19:20;15.60;99.90
18690;DHT22;9782;52.930;15.562;2023-06-14T06:21:47;15.70;99.90
18690;DHT22;9782;52.930;15.562;2023-06-14T06:24:15;15.80;95.10
18690;DHT22;9782;52.930;15.562;2023-06-14T06:26:42;15.80;78.70
18690;DHT22;9782;52.930;15.562;2023-06-14T06:29:09;15.80;97.70
18690;DHT22;9782;52.930;15.562;2023-06-14T06:31:35;15.90;55.00
18690;DHT22;9782;52.930;15.562;2023-06-14T06:34:02;15.90;1.00
18690;DHT22;9782;52.930;15.562;2023-06-14T06:36:29;15.90;1.00
18690;DHT22;9782;52.930;15.562;2023-06-14T06:38:56;16.00;1.00
18690;DHT22;9782;52.930;15.562;2023-06-14T06:41:24;16.00;1.00
18690;DHT22;9782;52.930;15.562;2023-06-14T06:43:51;16.10;1.00
18690;DHT22;9782;52.930;15.562;2023-06-14T06:46:17;16.30;1.00
18690;DHT22;9782;52.930;15.562;2023-06-14T06:48:44;16.60;1.00
18690;DHT22;9782;52.930;15.562;2023-06-14T06:51:11;16.80;1.00
18690;DHT22;9782;52.930;15.562;2023-06-14T06:53:41;17.10;99.90
18690;DHT22;9782;52.930;15.562;2023-06-14T06:56:08;17.40;81.20
18690;DHT22;9782;52.930;15.562;2023-06-14T06:58:36;17.50;1.00
18690;DHT22;9782;52.930;15.562;2023-06-14T07:01:03;17.40;1.00
18690;DHT22;9782;52.930;15.562;2023-06-14T07:03:30;17.40;1.00
18690;DHT22;9782;52.930;15.562;2023-06-14T07:05:57;17.40;1.00
18690;DHT22;9782;52.930;15.562;2023-06-14T07:08:23;17.50;1.00
18690;DHT22;9782;52.930;15.562;2023-06-14T07:10:50;17.50;1.00
18690;DHT22;9782;52.930;15.562;2023-06-14T07:13:17;17.50;1.00
18690;DHT22;9782;52.930;15.562;2023-06-14T07:15:46;17.60;1.00
18690;DHT22;9782;52.930;15.562;2023-06-14T07:18:13;17.60;1.00
18690;DHT22;9782;52.930;15.562;2023-06-14T07:20:40;17.70;99.90
18690;DHT22;9782;52.930;15.562;2023-06-14T07:23:08;17.70;99.90
18690;DHT22;9782;52.930;15.562;2023-06-14T07:25:35;17.80;99.90
18690;DHT22;9782;52.930;15.562;2023-06-14T07:28:02;17.90;99.90
18690;DHT22;9782;52.930;15.562;2023-06-14T07:30:28;18.00;99.90
18690;DHT22;9782;52.930;15.562;2023-06-14T07:32:57;18.00;99.90
18690;DHT22;9782;52.930;15.562;2023-06-14T07:35:23;18.10;99.90
18690;DHT22;9782;52.930;15.562;2023-06-14T07:37:50;18.10;99.90
18690;DHT22;9782;52.930;15.562;2023-06-14T07:40:17;18.20;99.90
18690;DHT22;9782;52.930;15.562;2023-06-14T07:42:44;18.20;99.90
18690;DHT22;9782;52.930;15.562;2023-06-14T07:45:13;18.20;99.90
18690;DHT22;9782;52.930;15.562;2023-06-14T07:47:39;18.30;99.90
18690;DHT22;9782;52.930;15.562;2023-06-14T07:50:09;18.30;54.00
18690;DHT22;9782;52.930;15.562;2023-06-14T07:52:35;18.50;31.70
18690;DHT22;9782;52.930;15.562;2023-06-14T07:55:03;18.60;16.00
18690;DHT22;9782;52.930;15.562;2023-06-14T07:57:29;18.70;1.00
18690;DHT22;9782;52.930;15.562;2023-06-14T07:59:56;18.80;1.00
18690;DHT22;9782;52.930;15.562;2023-06-14T08:02:24;18.70;1.00
18690;DHT22;9782;52.930;15.562;2023-06-14T08:04:51;18.70;1.00
18690;DHT22;9782;52.930;15.562;2023-06-14T08:07:19;18.60;1.00
18690;DHT22;9782;52.930;15.562;2023-06-14T08:09:46;18.60;1.00
18690;DHT22;9782;52.930;15.562;2023-06-14T08:12:13;18.50;1.00
18690;DHT22;9782;52.930;15.562;2023-06-14T08:14:41;18.50;1.00
18690;DHT22;9782;52.930;15.562;2023-06-14T08:17:08;18.50;1.00
18690;DHT22;9782;52.930;15.562;2023-06-14T08:19:35;18.60;1.00
18690;DHT22;9782;52.930;15.562;2023-06-14T08:22:02;18.80;1.00
18690;DHT22;9782;52.930;15.562;2023-06-14T08:24:31;19.10;1.00
18690;DHT22;9782;52.930;15.562;2023-06-14T08:26:58;19.40;1.00
18690;DHT22;9782;52.930;15.562;2023-06-14T08:29:26;19.70;1.00
18690;DHT22;9782;52.930;15.562;2023-06-14T08:31:56;20.00;1.00
18690;DHT22;9782;52.930;15.562;2023-06-14T08:34:23;20.20;1.00
18690;DHT22;9782;52.930;15.562;2023-06-14T08:36:50;20.30;1.00
18690;DHT22;9782;52.930;15.562;2023-06-14T08:39:17;20.40;1.00
18690;DHT22;9782;52.930;15.562;2023-06-14T08:41:46;20.30;1.00
18690;DHT22;9782;52.930;15.562;2023-06-14T08:44:14;20.40;1.00
18690;DHT22;9782;52.930;15.562;2023-06-14T08:46:42;20.60;1.00
18690;DHT22;9782;52.930;15.562;2023-06-14T08:49:11;20.90;1.00
18690;DHT22;9782;52.930;15.562;2023-06-14T08:51:42;21.20;1.00
18690;DHT22;9782;52.930;15.562;2023-06-14T08:54:11;21.60;1.00
18690;DHT22;9782;52.930;15.562;2023-06-14T08:56:38;21.80;99.90
18690;DHT22;9782;52.930;15.562;2023-06-14T08:59:09;21.90;99.90
18690;DHT22;9782;52.930;15.562;2023-06-14T09:01:37;22.00;99.90
18690;DHT22;9782;52.930;15.562;2023-06-14T09:06:30;22.90;99.90
18690;DHT22;9782;52.930;15.562;2023-06-14T09:08:57;23.30;99.90
18690;DHT22;9782;52.930;15.562;2023-06-14T09:11:24;23.50;99.90
18690;DHT22;9782;52.930;15.562;2023-06-14T09:13:52;23.50;99.90
18690;DHT22;9782;52.930;15.562;2023-06-14T09:24:13;23.90;99.90
18690;DHT22;9782;52.930;15.562;2023-06-14T09:26:41;23.70;99.90
18690;DHT22;9782;52.930;15.562;2023-06-14T09:34:18;23.90;99.90
18690;DHT22;9782;52.930;15.562;2023-06-14T09:47:28;23.90;99.90
18690;DHT22;9782;52.930;15.562;2023-06-14T09:49:55;24.10;99.90
18690;DHT22;9782;52.930;15.562;2023-06-14T09:54:59;24.60;99.90
18690;DHT22;9782;52.930;15.562;2023-06-14T09:57:27;25.00;99.90
18690;DHT22;9782;52.930;15.562;2023-06-14T10:00:00;25.20;99.90
18690;DHT22;9782;52.930;15.562;2023-06-14T10:02:43;25.30;99.90
18690;DHT22;9782;52.930;15.562;2023-06-14T10:05:17;25.40;99.90
18690;DHT22;9782;52.930;15.562;2023-06-14T10:10:21;25.60;99.90
18690;DHT22;9782;52.930;15.562;2023-06-14T10:12:49;25.60;99.90
18690;DHT22;9782;52.930;15.562;2023-06-14T10:31:02;26.00;99.90
18690;DHT22;9782;52.930;15.562;2023-06-14T10:33:30;26.00;99.90
18690;DHT22;9782;52.930;15.562;2023-06-14T10:36:08;26.40;95.60
18690;DHT22;9782;52.930;15.562;2023-06-14T12:32:32;28.30;7.50
18690;DHT22;9782;52.930;15.562;2023-06-14T12:35:02;28.70;1.00
18690;DHT22;9782;52.930;15.562;2023-06-14T12:37:29;28.90;12.00
18690;DHT22;9782;52.930;15.562;2023-06-14T12:39:56;29.00;1.00
18690;DHT22;9782;52.930;15.562;2023-06-14T12:42:23;29.30;1.00
18690;DHT22;9782;52.930;15.562;2023-06-14T12:44:50;29.70;1.00
18690;DHT22;9782;52.930;15.562;2023-06-14T12:47:17;30.10;1.00
18690;DHT22;9782;52.930;15.562;2023-06-14T12:49:45;30.20;1.00
18690;DHT22;9782;52.930;15.562;2023-06-14T12:52:12;30.20;1.00
18690;DHT22;9782;52.930;15.562;2023-06-14T12:54:39;30.20;1.00
18690;DHT22;9782;52.930;15.562;2023-06-14T12:57:06;30.40;1.00
18690;DHT22;9782;52.930;15.562;2023-06-14T12:59:33;30.50;1.00
18690;DHT22;9782;52.930;15.562;2023-06-14T13:02:12;30.30;1.00
18690;DHT22;9782;52.930;15.562;2023-06-14T13:04:39;29.90;1.00
18690;DHT22;9782;52.930;15.562;2023-06-14T13:07:10;29.70;1.00
18690;DHT22;9782;52.930;15.562;2023-06-14T13:09:37;29.60;1.00
18690;DHT22;9782;52.930;15.562;2023-06-14T13:12:04;29.30;1.00
18690;DHT22;9782;52.930;15.562;2023-06-14T13:14:32;29.10;1.00
18690;DHT22;9782;52.930;15.562;2023-06-14T14:58:42;23.60;1.00
18690;DHT22;9782;52.930;15.562;2023-06-14T15:01:09;23.60;1.00
18690;DHT22;9782;52.930;15.562;2023-06-14T15:03:37;23.70;1.00
18690;DHT22;9782;52.930;15.562;2023-06-14T15:11:14;23.80;1.00
18690;DHT22;9782;52.930;15.562;2023-06-14T15:13:43;23.90;1.00
18690;DHT22;9782;52.930;15.562;2023-06-14T15:16:10;23.90;1.00
18690;DHT22;9782;52.930;15.562;2023-06-14T15:18:37;24.00;1.00
18690;DHT22;9782;52.930;15.562;2023-06-14T15:21:03;24.10;1.00
18690;DHT22;9782;52.930;15.562;2023-06-14T15:23:30;24.30;1.00
18690;DHT22;9782;52.930;15.562;2023-06-14T15:25:57;24.40;1.00
18690;DHT22;9782;52.930;15.562;2023-06-14T15:28:24;24.50;1.00
18690;DHT22;9782;52.930;15.562;2023-06-14T15:30:55;24.60;1.00
18690;DHT22;9782;52.930;15.562;2023-06-14T15:33:22;24.80;1.00
18690;DHT22;9782;52.930;15.562;2023-06-14T15:35:49;24.90;1.00
18690;DHT22;9782;52.930;15.562;2023-06-14T15:38:16;25.00;1.00
18690;DHT22;9782;52.930;15.562;2023-06-14T15:40:43;25.20;1.00
18690;DHT22;9782;52.930;15.562;2023-06-14T15:45:44;25.40;1.00
18690;DHT22;9782;52.930;15.562;2023-06-14T15:48:12;25.50;1.00
18690;DHT22;9782;52.930;15.562;2023-06-14T15:50:39;25.60;1.00
18690;DHT22;9782;52.930;15.562;2023-06-14T15:53:06;25.70;1.00
18690;DHT22;9782;52.930;15.562;2023-06-14T15:55:33;25.80;1.00
18690;DHT22;9782;52.930;15.562;2023-06-14T15:58:00;25.90;1.00
18690;DHT22;9782;52.930;15.562;2023-06-14T16:00:27;26.00;1.00
18690;DHT22;9782;52.930;15.562;2023-06-14T16:02:53;26.20;1.00
18690;DHT22;9782;52.930;15.562;2023-06-14T16:05:22;26.20;1.00
18690;DHT22;9782;52.930;15.562;2023-06-14T16:07:49;26.10;1.00
18690;DHT22;9782;52.930;15.562;2023-06-14T16:10:15;25.90;1.00
18690;DHT22;9782;52.930;15.562;2023-06-14T16:12:42;25.70;1.00
18690;DHT22;9782;52.930;15.562;2023-06-14T16:15:09;25.50;1.00
18690;DHT22;9782;52.930;15.562;2023-06-14T16:17:36;25.40;1.00
18690;DHT22;9782;52.930;15.562;2023-06-14T16:20:04;25.20;1.00
18690;DHT22;9782;52.930;15.562;2023-06-14T16:22:32;25.00;1.00
18690;DHT22;9782;52.930;15.562;2023-06-14T16:24:59;24.90;1.00
18690;DHT22;9782;52.930;15.562;2023-06-14T16:27:26;24.80;1.00
18690;DHT22;9782;52.930;15.562;2023-06-14T16:29:53;24.70;1.00
18690;DHT22;9782;52.930;15.562;2023-06-14T16:32:20;24.60;1.00
18690;DHT22;9782;52.930;15.562;2023-06-14T16:34:47;24.60;1.00
18690;DHT22;9782;52.930;15.562;2023-06-14T16:37:14;24.50;1.00
18690;DHT22;9782;52.930;15.562;2023-06-14T16:39:42;24.40;1.00
18690;DHT22;9782;52.930;15.562;2023-06-14T16:42:09;24.40;1.00
18690;DHT22;9782;52.930;15.562;2023-06-14T16:44:36;24.30;1.00
18690;DHT22;9782;52.930;15.562;2023-06-14T16:47:04;24.10;1.00
18690;DHT22;9782;52.930;15.562;2023-06-14T16:49:31;23.90;1.00
18690;DHT22;9782;52.930;15.562;2023-06-14T16:51:58;23.80;1.00
18690;DHT22;9782;52.930;15.562;2023-06-14T16:54:27;23.60;1.00
18690;DHT22;9782;52.930;15.562;2023-06-14T16:56:56;23.50;1.00
18690;DHT22;9782;52.930;15.562;2023-06-14T16:59:26;23.30;1.00
18690;DHT22;9782;52.930;15.562;2023-06-14T17:02:01;23.20;1.00
18690;DHT22;9782;52.930;15.562;2023-06-14T17:06:53;22.90;1.00
18690;DHT22;9782;52.930;15.562;2023-06-14T17:11:47;22.50;2.80
18690;DHT22;9782;52.930;15.562;2023-06-14T17:16:43;22.20;4.10
18690;DHT22;9782;52.930;15.562;2023-06-14T17:19:10;22.10;1.00
18690;DHT22;9782;52.930;15.562;2023-06-14T17:21:37;21.90;1.00
18690;DHT22;9782;52.930;15.562;2023-06-14T17:24:06;21.70;1.00
18690;DHT22;9782;52.930;15.562;2023-06-14T17:26:33;21.40;3.30
18690;DHT22;9782;52.930;15.562;2023-06-14T17:29:00;21.10;1.00
18690;DHT22;9782;52.930;15.562;2023-06-14T17:31:27;20.50;16.40
18690;DHT22;9782;52.930;15.562;2023-06-14T17:33:55;19.70;84.20
18690;DHT22;9782;52.930;15.562;2023-06-14T17:36:22;18.90;99.90
18690;DHT22;9782;52.930;15.562;2023-06-14T17:38:49;18.30;1.00
18690;DHT22;9782;52.930;15.562;2023-06-14T17:49:03;16.90;1.00
18690;DHT22;9782;52.930;15.562;2023-06-14T17:51:30;16.80;99.90
18690;DHT22;9782;52.930;15.562;2023-06-14T17:53:57;16.70;1.00
18690;DHT22;9782;52.930;15.562;2023-06-14T17:56:24;16.70;1.00
18690;DHT22;9782;52.930;15.562;2023-06-14T17:58:51;16.70;99.90
18690;DHT22;9782;52.930;15.562;2023-06-14T18:01:18;16.70;99.90
18690;DHT22;9782;52.930;15.562;2023-06-14T18:03:46;16.70;1.00
18690;DHT22;9782;52.930;15.562;2023-06-14T18:06:14;16.70;1.00
18690;DHT22;9782;52.930;15.562;2023-06-14T18:08:41;16.70;1.00
18690;DHT22;9782;52.930;15.562;2023-06-14T18:11:09;16.70;1.00
18690;DHT22;9782;52.930;15.562;2023-06-14T18:13:35;16.70;1.60
18690;DHT22;9782;52.930;15.562;2023-06-14T18:16:03;16.70;22.30
18690;DHT22;9782;52.930;15.562;2023-06-14T18:18:29;16.70;97.60
18690;DHT22;9782;52.930;15.562;2023-06-14T18:20:56;16.70;99.90
18690;DHT22;9782;52.930;15.562;2023-06-14T18:23:26;16.60;99.90
18690;DHT22;9782;52.930;15.562;2023-06-14T18:25:53;16.70;1.00
18690;DHT22;9782;52.930;15.562;2023-06-14T18:28:20;16.70;1.00
18690;DHT22;9782;52.930;15.562;2023-06-14T18:30:46;16.80;1.00
18690;DHT22;9782;52.930;15.562;2023-06-14T18:33:13;16.80;1.00
18690;DHT22;9782;52.930;15.562;2023-06-14T18:35:41;16.90;1.00
18690;DHT22;9782;52.930;15.562;2023-06-14T18:38:07;17.00;1.00
18690;DHT22;9782;52.930;15.562;2023-06-14T18:40:35;17.00;1.00
18690;DHT22;9782;52.930;15.562;2023-06-14T18:43:02;17.10;1.00
18690;DHT22;9782;52.930;15.562;2023-06-14T18:45:30;17.20;1.00
18690;DHT22;9782;52.930;15.562;2023-06-14T18:47:56;17.20;1.00
18690;DHT22;9782;52.930;15.562;2023-06-14T18:50:23;17.20;1.00
18690;DHT22;9782;52.930;15.562;2023-06-14T18:52:51;17.30;1.00
18690;DHT22;9782;52.930;15.562;2023-06-14T18:55:17;17.30;1.00
18690;DHT22;9782;52.930;15.562;2023-06-14T18:57:47;17.30;1.00
18690;DHT22;9782;52.930;15.562;2023-06-14T19:00:15;17.30;1.00
18690;DHT22;9782;52.930;15.562;2023-06-14T19:02:42;17.30;1.00
18690;DHT22;9782;52.930;15.562;2023-06-14T19:05:09;17.40;1.00
18690;DHT22;9782;52.930;15.562;2023-06-14T19:07:36;17.40;1.00
18690;DHT22;9782;52.930;15.562;2023-06-14T19:10:03;17.30;1.00
18690;DHT22;9782;52.930;15.562;2023-06-14T19:12:30;17.30;1.00
18690;DHT22;9782;52.930;15.562;2023-06-14T19:14:58;17.30;94.50
18690;DHT22;9782;52.930;15.562;2023-06-14T19:17:25;17.30;59.40
18690;DHT22;9782;52.930;15.562;2023-06-14T19:19:52;17.30;1.00
18690;DHT22;9782;52.930;15.562;2023-06-14T19:22:19;17.30;1.00
18690;DHT22;9782;52.930;15.562;2023-06-14T19:24:46;17.30;1.00
18690;DHT22;9782;52.930;15.562;2023-06-14T19:27:13;17.20;1.00
18690;DHT22;9782;52.930;15.562;2023-06-14T19:29:40;17.20;1.00
18690;DHT22;9782;52.930;15.562;2023-06-14T19:32:08;17.10;66.30
18690;DHT22;9782;52.930;15.562;2023-06-14T19:34:35;17.00;99.90
18690;DHT22;9782;52.930;15.562;2023-06-14T19:37:08;16.90;99.90
18690;DHT22;9782;52.930;15.562;2023-06-14T19:39:34;16.80;1.00
18690;DHT22;9782;52.930;15.562;2023-06-14T19:42:01;16.80;1.00
18690;DHT22;9782;52.930;15.562;2023-06-14T19:44:28;16.70;1.00
18690;DHT22;9782;52.930;15.562;2023-06-14T19:46:55;16.60;85.60
18690;DHT22;9782;52.930;15.562;2023-06-14T19:49:23;16.60;99.90
18690;DHT22;9782;52.930;15.562;2023-06-14T19:51:50;16.60;99.90
18690;DHT22;9782;52.930;15.562;2023-06-14T19:54:17;16.50;99.90
18690;DHT22;9782;52.930;15.562;2023-06-14T19:56:43;16.50;99.90
18690;DHT22;9782;52.930;15.562;2023-06-14T19:59:11;16.40;99.90
18690;DHT22;9782;52.930;15.562;2023-06-14T20:01:38;16.30;99.90
18690;DHT22;9782;52.930;15.562;2023-06-14T20:04:05;16.30;99.90
18690;DHT22;9782;52.930;15.562;2023-06-14T20:06:33;16.10;99.90
18690;DHT22;9782;52.930;15.562;2023-06-14T20:09:00;16.00;99.90
18690;DHT22;9782;52.930;15.562;2023-06-14T20:11:30;15.90;1.00
18690;DHT22;9782;52.930;15.562;2023-06-14T20:13:57;15.80;1.00
18690;DHT22;9782;52.930;15.562;2023-06-14T20:16:25;15.70;1.00
18690;DHT22;9782;52.930;15.562;2023-06-14T20:18:52;15.60;1.00
18690;DHT22;9782;52.930;15.562;2023-06-14T20:21:22;15.60;1.00
18690;DHT22;9782;52.930;15.562;2023-06-14T20:23:50;15.50;1.00
18690;DHT22;9782;52.930;15.562;2023-06-14T20:26:17;15.50;1.00
18690;DHT22;9782;52.930;15.562;2023-06-14T20:28:44;15.50;1.00
18690;DHT22;9782;52.930;15.562;2023-06-14T20:31:13;15.40;1.00
18690;DHT22;9782;52.930;15.562;2023-06-14T20:33:43;15.40;2.50
18690;DHT22;9782;52.930;15.562;2023-06-14T20:36:11;15.40;19.90
18690;DHT22;9782;52.930;15.562;2023-06-14T20:38:38;15.40;95.90
18690;DHT22;9782;52.930;15.562;2023-06-14T20:41:06;15.40;53.60
18690;DHT22;9782;52.930;15.562;2023-06-14T20:43:33;15.30;12.10
18690;DHT22;9782;52.930;15.562;2023-06-14T20:46:01;15.30;99.90
18690;DHT22;9782;52.930;15.562;2023-06-14T20:48:28;15.30;99.90
18690;DHT22;9782;52.930;15.562;2023-06-14T20:50:55;15.30;99.90
18690;DHT22;9782;52.930;15.562;2023-06-14T20:53:22;15.30;99.90
18690;DHT22;9782;52.930;15.562;2023-06-14T20:55:48;15.20;99.90
18690;DHT22;9782;52.930;15.562;2023-06-14T20:58:17;15.20;99.90
18690;DHT22;9782;52.930;15.562;2023-06-14T21:00:45;15.20;99.90
18690;DHT22;9782;52.930;15.562;2023-06-14T21:03:11;15.20;1.00
18690;DHT22;9782;52.930;15.562;2023-06-14T21:05:38;15.20;1.00
18690;DHT22;9782;52.930;15.562;2023-06-14T21:08:05;15.20;1.00
18690;DHT22;9782;52.930;15.562;2023-06-14T21:10:32;15.20;1.00
18690;DHT22;9782;52.930;15.562;2023-06-14T21:12:59;15.20;1.00
18690;DHT22;9782;52.930;15.562;2023-06-14T21:15:27;15.30;1.00
18690;DHT22;9782;52.930;15.562;2023-06-14T21:17:55;15.30;1.00
18690;DHT22;9782;52.930;15.562;2023-06-14T21:20:22;15.30;1.00
18690;DHT22;9782;52.930;15.562;2023-06-14T21:22:49;15.30;1.00
18690;DHT22;9782;52.930;15.562;2023-06-14T21:25:16;15.30;1.00
18690;DHT22;9782;52.930;15.562;2023-06-14T21:27:43;15.30;1.00
18690;DHT22;9782;52.930;15.562;2023-06-14T21:30:14;15.30;1.00
18690;DHT22;9782;52.930;15.562;2023-06-14T21:32:42;15.30;1.00
18690;DHT22;9782;52.930;15.562;2023-06-14T21:35:12;15.40;1.00
18690;DHT22;9782;52.930;15.562;2023-06-14T21:37:42;15.40;99.90
18690;DHT22;9782;52.930;15.562;2023-06-14T21:40:10;15.50;99.90
18690;DHT22;9782;52.930;15.562;2023-06-14T21:42:37;15.50;99.90
18690;DHT22;9782;52.930;15.562;2023-06-14T21:45:05;15.60;99.90
18690;DHT22;9782;52.930;15.562;2023-06-14T21:47:34;15.60;99.90
18690;DHT22;9782;52.930;15.562;2023-06-14T21:50:03;15.70;99.90
18690;DHT22;9782;52.930;15.562;2023-06-14T21:52:30;15.70;99.90
